createdAt,value
2019-04-30T00:02:34.354Z,33.37
2019-04-30T00:04:59.388Z,34.97
2019-04-30T00:07:30.540Z,35.40
2019-04-30T00:10:01.209Z,35.47
2019-04-30T00:12:38.023Z,34.30
2019-04-30T00:15:06.194Z,35.10
2019-04-30T00:17:36.816Z,34.60
2019-04-30T00:20:07.427Z,34.70
2019-04-30T00:22:39.242Z,36.90
2019-04-30T00:25:10.478Z,44.73
2019-04-30T00:27:40.941Z,36.53
2019-04-30T00:30:11.460Z,36.17
2019-04-30T00:32:43.715Z,35.17
2019-04-30T00:35:16.158Z,36.90
2019-04-30T00:37:51.698Z,37.60
2019-04-30T00:40:21.710Z,35.80
2019-04-30T00:42:52.925Z,35.70
2019-04-30T00:45:25.111Z,37.33
2019-04-30T00:47:55.954Z,37.30
2019-04-30T00:50:29.057Z,34.93
2019-04-30T00:52:58.777Z,36.93
2019-04-30T00:55:29.355Z,35.30
2019-04-30T00:57:59.883Z,36.07
2019-04-30T01:00:32.620Z,35.40
2019-04-30T01:03:09.388Z,34.93
2019-04-30T01:05:45.603Z,34.70
2019-04-30T01:08:12.084Z,39.57
2019-04-30T01:10:42.461Z,34.20
2019-04-30T01:13:14.298Z,34.70
2019-04-30T01:15:49.025Z,35.60
2019-04-30T01:18:16.912Z,35.40
2019-04-30T01:20:48.766Z,35.90
2019-04-30T01:23:19.592Z,38.23
2019-04-30T01:25:51.416Z,37.50
2019-04-30T01:28:24.252Z,43.53
2019-04-30T01:30:58.689Z,44.93
2019-04-30T01:33:28.426Z,46.90
2019-04-30T01:35:59.694Z,40.57
2019-04-30T01:38:31.220Z,39.50
2019-04-30T01:41:01.567Z,35.50
2019-04-30T01:43:34.620Z,36.53
2019-04-30T01:46:12.153Z,34.67
2019-04-30T01:48:36.762Z,41.50
2019-04-30T01:51:08.995Z,34.53
2019-04-30T01:53:43.648Z,34.40
2019-04-30T01:56:29.157Z,34.87
2019-04-30T01:59:04.335Z,34.47
2019-04-30T02:01:39.180Z,35.47
2019-04-30T02:04:09.874Z,36.30
2019-04-30T02:06:40.492Z,37.13
2019-04-30T02:09:11.020Z,34.97
2019-04-30T02:11:41.375Z,38.83
2019-04-30T02:14:11.927Z,37.63
2019-04-30T02:16:42.345Z,39.03
2019-04-30T02:19:12.873Z,39.53
2019-04-30T02:21:43.444Z,38.20
2019-04-30T02:24:14.048Z,38.47
2019-04-30T02:26:44.589Z,43.90
2019-04-30T02:29:15.159Z,38.77
2019-04-30T02:31:45.550Z,36.13
2019-04-30T02:34:23.464Z,40.17
2019-04-30T02:36:55.698Z,36.37
2019-04-30T02:39:26.103Z,34.87
2019-04-30T02:41:59.757Z,34.53
2019-04-30T02:44:30.922Z,35.47
2019-04-30T02:47:02.432Z,35.93
2019-04-30T02:49:34.860Z,35.60
2019-04-30T02:52:09.102Z,36.47
2019-04-30T02:54:44.235Z,35.03
2019-04-30T02:57:15.264Z,34.97
2019-04-30T03:00:03.140Z,34.33
2019-04-30T03:02:33.596Z,31.93
2019-04-30T03:05:06.881Z,34.37
2019-04-30T03:07:37.332Z,35.23
2019-04-30T03:10:10.125Z,35.40
2019-04-30T03:12:40.710Z,35.27
2019-04-30T03:15:22.351Z,34.73
2019-04-30T03:18:00.720Z,35.20
2019-04-30T03:20:49.875Z,33.73
2019-04-30T03:23:20.679Z,32.97
2019-04-30T03:25:53.975Z,33.90
2019-04-30T03:28:24.682Z,40.15
2019-04-30T03:30:57.625Z,34.20
2019-04-30T03:33:32.598Z,34.77
2019-04-30T03:36:02.827Z,34.40
2019-04-30T03:38:33.630Z,34.93
2019-04-30T03:41:04.131Z,34.63
2019-04-30T03:43:34.741Z,34.33
2019-04-30T03:46:05.147Z,34.93
2019-04-30T03:48:35.609Z,35.93
2019-04-30T03:51:06.435Z,36.17
2019-04-30T03:53:39.729Z,36.23
2019-04-30T03:56:09.469Z,34.33
2019-04-30T03:58:40.064Z,35.67
2019-04-30T04:01:19.646Z,34.60
2019-04-30T04:04:10.506Z,35.73
2019-04-30T04:06:45.763Z,33.10
2019-04-30T04:09:22.451Z,33.70
2019-04-30T04:12:04.945Z,30.63
2019-04-30T04:14:39.437Z,31.73
2019-04-30T04:17:10.029Z,29.33
2019-04-30T04:19:41.432Z,30.73
2019-04-30T04:22:12.263Z,32.90
2019-04-30T04:24:43.121Z,31.13
2019-04-30T04:27:15.051Z,35.30
2019-04-30T04:29:45.690Z,31.13
2019-04-30T04:32:16.165Z,28.43
2019-04-30T04:34:46.590Z,25.20
2019-04-30T04:37:19.163Z,24.10
2019-04-30T04:39:50.248Z,21.33
2019-04-30T04:42:21.179Z,21.48
2019-04-30T04:44:51.535Z,21.15
2019-04-30T04:47:23.637Z,22.55
2019-04-30T04:49:54.215Z,21.85
2019-04-30T04:52:24.786Z,21.37
2019-04-30T04:54:55.199Z,21.87
2019-04-30T04:57:25.598Z,21.65
2019-04-30T04:59:55.933Z,21.33
2019-04-30T05:02:32.670Z,21.80
2019-04-30T05:05:04.659Z,21.42
2019-04-30T05:07:37.390Z,19.95
2019-04-30T05:10:09.201Z,19.85
2019-04-30T05:12:43.015Z,20.60
2019-04-30T05:15:13.899Z,17.12
2019-04-30T05:17:44.373Z,16.73
2019-04-30T05:20:15.146Z,16.17
2019-04-30T05:22:49.254Z,14.73
2019-04-30T05:25:19.818Z,15.60
2019-04-30T05:27:51.803Z,16.00
2019-04-30T05:30:22.274Z,16.73
2019-04-30T05:32:54.323Z,15.75
2019-04-30T05:35:24.758Z,14.47
2019-04-30T05:37:59.825Z,14.87
2019-04-30T05:40:51.828Z,14.23
2019-04-30T05:43:25.036Z,14.60
2019-04-30T05:45:58.663Z,14.87
2019-04-30T05:48:29.259Z,15.15
2019-04-30T05:50:59.569Z,16.60
2019-04-30T05:53:30.036Z,18.43
2019-04-30T05:56:03.348Z,15.32
2019-04-30T05:58:34.514Z,13.30
2019-04-30T06:01:09.697Z,12.33
2019-04-30T06:03:42.891Z,11.90
2019-04-30T06:06:16.776Z,14.27
2019-04-30T06:09:06.610Z,16.87
2019-04-30T06:11:53.792Z,15.43
2019-04-30T06:14:31.386Z,12.80
2019-04-30T06:17:21.349Z,16.30
2019-04-30T06:19:53.655Z,16.13
2019-04-30T06:22:26.536Z,15.63
2019-04-30T06:24:59.462Z,14.50
2019-04-30T06:27:34.445Z,12.98
2019-04-30T06:30:05.995Z,12.33
2019-04-30T06:32:39.500Z,11.28
2019-04-30T06:35:11.874Z,10.43
2019-04-30T06:37:48.857Z,11.00
2019-04-30T06:40:22.018Z,9.83
2019-04-30T06:42:54.511Z,10.05
2019-04-30T06:45:25.761Z,13.95
2019-04-30T06:48:02.845Z,11.63
2019-04-30T06:50:33.597Z,12.25
2019-04-30T06:53:04.045Z,10.03
2019-04-30T06:55:34.490Z,9.30
2019-04-30T06:58:14.817Z,11.90
2019-04-30T07:00:39.945Z,13.68
2019-04-30T07:03:14.205Z,14.73
2019-04-30T07:05:44.912Z,14.33
2019-04-30T07:08:37.263Z,14.53
2019-04-30T07:11:08.614Z,14.15
2019-04-30T07:13:39.524Z,10.43
2019-04-30T07:16:11.551Z,8.70
2019-04-30T07:18:48.930Z,7.70
2019-04-30T07:21:19.988Z,7.90
2019-04-30T07:23:51.403Z,8.18
2019-04-30T07:26:24.772Z,8.80
2019-04-30T07:28:55.702Z,8.13
2019-04-30T07:31:29.409Z,8.35
2019-04-30T07:34:02.364Z,10.60
2019-04-30T07:36:45.288Z,10.05
2019-04-30T07:39:09.830Z,10.95
2019-04-30T07:41:40.277Z,12.03
2019-04-30T07:44:16.678Z,8.93
2019-04-30T07:46:45.207Z,8.35
2019-04-30T07:49:15.067Z,7.67
2019-04-30T07:51:46.156Z,7.85
2019-04-30T07:54:18.896Z,7.80
2019-04-30T07:56:50.705Z,7.30
2019-04-30T07:59:21.166Z,7.67
2019-04-30T08:02:04.019Z,7.45
2019-04-30T08:04:29.262Z,7.47
2019-04-30T08:07:01.777Z,6.87
2019-04-30T08:09:39.195Z,7.00
2019-04-30T08:12:09.060Z,7.10
2019-04-30T08:14:39.189Z,7.05
2019-04-30T08:17:09.777Z,6.47
2019-04-30T08:19:41.103Z,6.58
2019-04-30T08:22:11.739Z,6.42
2019-04-30T08:24:42.199Z,10.55
2019-04-30T08:27:12.665Z,7.33
2019-04-30T08:29:43.210Z,7.22
2019-04-30T08:32:15.209Z,6.72
2019-04-30T08:34:45.716Z,6.75
2019-04-30T08:37:18.173Z,6.70
2019-04-30T08:39:49.707Z,5.92
2019-04-30T08:42:30.929Z,6.50
2019-04-30T08:44:52.566Z,6.12
2019-04-30T08:47:23.129Z,8.75
2019-04-30T08:49:53.604Z,6.28
2019-04-30T08:52:24.074Z,6.53
2019-04-30T08:54:54.411Z,7.05
2019-04-30T08:57:26.576Z,6.35
2019-04-30T08:59:58.629Z,5.53
2019-04-30T09:02:29.376Z,6.85
2019-04-30T09:05:09.333Z,6.08
2019-04-30T09:07:42.647Z,6.10
2019-04-30T09:10:14.207Z,4.87
2019-04-30T09:12:47.229Z,5.20
2019-04-30T09:15:18.834Z,5.30
2019-04-30T09:18:00.751Z,4.67
2019-04-30T09:20:22.143Z,5.20
2019-04-30T09:22:52.730Z,4.90
2019-04-30T09:25:23.107Z,4.78
2019-04-30T09:27:53.840Z,5.60
2019-04-30T09:30:24.485Z,6.55
2019-04-30T09:32:55.223Z,5.28
2019-04-30T09:35:25.709Z,4.60
2019-04-30T09:38:01.892Z,9.73
2019-04-30T09:40:32.269Z,4.45
2019-04-30T09:43:03.397Z,4.87
2019-04-30T09:45:33.919Z,4.80
2019-04-30T09:48:04.820Z,5.25
2019-04-30T09:50:39.198Z,4.95
2019-04-30T09:53:10.275Z,4.53
2019-04-30T09:55:42.688Z,5.67
2019-04-30T09:58:17.019Z,5.30
2019-04-30T10:00:45.353Z,4.90
2019-04-30T10:03:16.464Z,8.00
2019-04-30T10:05:49.128Z,11.40
2019-04-30T10:08:21.000Z,12.53
2019-04-30T10:11:09.991Z,12.85
2019-04-30T10:13:40.525Z,13.28
2019-04-30T10:16:33.323Z,13.78
2019-04-30T10:19:03.888Z,14.23
2019-04-30T10:21:34.284Z,14.68
2019-04-30T10:24:13.086Z,14.73
2019-04-30T10:26:40.409Z,13.85
2019-04-30T10:29:11.264Z,13.40
2019-04-30T10:31:41.679Z,13.08
2019-04-30T10:34:12.115Z,13.90
2019-04-30T10:36:44.945Z,13.08
2019-04-30T10:39:15.431Z,12.53
2019-04-30T10:41:45.770Z,14.03
2019-04-30T10:44:18.812Z,13.75
2019-04-30T10:53:19.454Z,14.47
2019-04-30T10:55:51.287Z,14.20
2019-04-30T10:58:21.755Z,14.00
2019-04-30T11:00:52.075Z,16.93
2019-04-30T11:03:23.200Z,17.73
2019-04-30T11:05:54.335Z,18.95
2019-04-30T11:08:25.743Z,18.20
2019-04-30T11:10:56.300Z,18.30
2019-04-30T11:13:26.782Z,21.12
2019-04-30T11:16:12.164Z,28.83
2019-04-30T11:18:32.859Z,41.13
2019-04-30T11:21:03.395Z,43.52
2019-04-30T11:23:34.334Z,44.70
2019-04-30T11:26:07.316Z,46.18
2019-04-30T11:28:37.100Z,48.75
2019-04-30T11:31:26.473Z,45.92
2019-04-30T11:34:01.762Z,45.88
2019-04-30T11:36:32.338Z,46.05
2019-04-30T11:39:02.890Z,45.23
2019-04-30T11:41:33.429Z,45.03
2019-04-30T11:44:03.822Z,44.83
2019-04-30T11:46:51.539Z,42.23
2019-04-30T11:49:23.559Z,43.65
2019-04-30T11:51:53.952Z,44.35
2019-04-30T11:54:24.414Z,44.25
2019-04-30T11:56:54.824Z,43.20
2019-04-30T11:59:25.426Z,44.53
2019-04-30T12:01:57.415Z,45.33
2019-04-30T12:04:29.705Z,43.92
2019-04-30T12:07:01.563Z,41.45
2019-04-30T12:09:49.558Z,41.85
2019-04-30T12:12:19.970Z,42.70
2019-04-30T12:14:50.523Z,40.60
2019-04-30T12:17:21.027Z,41.23
2019-04-30T12:19:51.404Z,40.38
2019-04-30T12:22:21.914Z,39.63
2019-04-30T12:25:02.231Z,40.78
2019-04-30T12:27:28.711Z,39.03
2019-04-30T12:29:59.974Z,37.48
2019-04-30T12:32:30.411Z,39.75
2019-04-30T12:35:00.763Z,39.30
2019-04-30T12:37:31.230Z,40.33
2019-04-30T12:40:02.001Z,39.23
2019-04-30T12:42:32.534Z,36.88
2019-04-30T12:45:02.943Z,36.55
2019-04-30T12:47:35.130Z,36.60
2019-04-30T12:50:15.993Z,34.75
2019-04-30T12:52:55.355Z,36.25
2019-04-30T12:55:33.477Z,39.58
2019-04-30T12:58:06.979Z,36.50
2019-04-30T13:00:40.421Z,35.90
2019-04-30T13:03:13.937Z,34.25
2019-04-30T13:05:46.322Z,36.15
2019-04-30T13:08:17.757Z,33.90
2019-04-30T13:10:51.690Z,33.38
2019-04-30T13:13:25.140Z,36.13
2019-04-30T13:15:54.702Z,33.42
2019-04-30T13:18:30.687Z,31.23
2019-04-30T13:21:04.297Z,30.02
2019-04-30T13:23:34.810Z,30.37
2019-04-30T13:26:08.921Z,31.55
2019-04-30T13:28:54.534Z,29.87
2019-04-30T13:31:30.488Z,30.35
2019-04-30T13:34:03.954Z,29.23
2019-04-30T13:36:34.327Z,28.17
2019-04-30T13:39:10.734Z,28.67
2019-04-30T13:41:46.847Z,28.40
2019-04-30T13:44:19.559Z,27.65
2019-04-30T13:46:50.132Z,27.32
2019-04-30T13:49:20.604Z,28.20
2019-04-30T13:51:51.085Z,27.77
2019-04-30T13:54:21.621Z,28.23
2019-04-30T13:56:52.167Z,27.22
2019-04-30T13:59:25.580Z,27.27
2019-04-30T14:01:56.267Z,26.85
2019-04-30T14:04:31.410Z,25.90
2019-04-30T14:07:06.442Z,25.80
2019-04-30T14:09:40.515Z,27.02
2019-04-30T14:12:11.088Z,26.70
2019-04-30T14:14:41.386Z,27.67
2019-04-30T14:17:11.847Z,29.67
2019-04-30T14:19:44.682Z,27.13
2019-04-30T14:22:15.287Z,26.27
2019-04-30T14:24:45.836Z,25.25
2019-04-30T14:27:16.435Z,25.20
2019-04-30T14:29:46.901Z,24.35
2019-04-30T14:32:20.268Z,25.03
2019-04-30T14:34:50.841Z,22.82
2019-04-30T14:37:21.210Z,25.20
2019-04-30T14:39:52.211Z,25.23
2019-04-30T14:42:23.761Z,24.20
2019-04-30T14:45:07.827Z,24.03
2019-04-30T14:47:52.328Z,23.05
2019-04-30T14:50:31.891Z,23.40
2019-04-30T14:53:06.734Z,23.57
2019-04-30T14:55:39.326Z,22.30
2019-04-30T14:58:20.532Z,23.07
2019-04-30T15:01:01.621Z,26.75
2019-04-30T15:03:35.500Z,23.92
2019-04-30T15:06:05.961Z,23.77
2019-04-30T15:08:40.266Z,22.43
2019-04-30T15:11:10.126Z,23.50
2019-04-30T15:13:40.540Z,22.47
2019-04-30T15:16:12.055Z,23.27
2019-04-30T15:18:43.869Z,25.57
2019-04-30T15:21:18.719Z,23.73
2019-04-30T15:24:09.233Z,22.83
2019-04-30T15:26:41.398Z,22.73
2019-04-30T15:29:16.227Z,23.80
2019-04-30T15:31:47.363Z,24.87
2019-04-30T15:34:19.232Z,24.50
2019-04-30T15:36:50.227Z,25.43
2019-04-30T15:39:22.452Z,24.73
2019-04-30T15:41:52.926Z,25.83
2019-04-30T15:44:23.274Z,26.30
2019-04-30T15:46:53.872Z,25.40
2019-04-30T15:49:24.530Z,25.27
2019-04-30T15:51:56.630Z,26.33
2019-04-30T15:54:27.043Z,26.20
2019-04-30T15:57:00.258Z,26.80
2019-04-30T15:59:37.297Z,27.63
2019-04-30T16:02:15.615Z,26.70
2019-04-30T16:04:59.975Z,27.63
2019-04-30T16:07:32.957Z,27.60
2019-04-30T16:10:12.914Z,27.50
2019-04-30T16:12:48.683Z,28.00
2019-04-30T16:15:19.353Z,29.00
2019-04-30T16:17:55.558Z,31.23
2019-04-30T16:20:25.925Z,30.33
2019-04-30T16:23:00.696Z,29.70
2019-04-30T16:25:33.744Z,30.43
2019-04-30T16:28:04.208Z,30.00
2019-04-30T16:30:34.619Z,29.60
2019-04-30T16:33:05.042Z,30.30
2019-04-30T16:35:35.473Z,41.03
2019-04-30T16:38:09.212Z,41.57
2019-04-30T16:40:41.524Z,33.43
2019-04-30T16:43:14.494Z,36.97
2019-04-30T16:45:45.094Z,30.37
2019-04-30T16:48:19.553Z,29.60
2019-04-30T16:50:51.182Z,30.43
2019-04-30T16:53:24.877Z,31.97
2019-04-30T16:55:58.641Z,31.97
2019-04-30T16:58:30.974Z,31.97
2019-04-30T17:01:02.838Z,32.87
2019-04-30T17:03:34.781Z,33.90
2019-04-30T17:06:12.445Z,58.57
2019-04-30T17:08:49.331Z,37.97
2019-04-30T17:11:20.765Z,34.13
2019-04-30T17:13:55.384Z,33.30
2019-04-30T17:16:25.886Z,32.23
2019-04-30T17:18:56.207Z,32.07
2019-04-30T17:21:26.632Z,31.53
2019-04-30T17:23:58.708Z,31.47
2019-04-30T17:26:29.329Z,32.63
2019-04-30T17:28:59.948Z,31.00
2019-04-30T17:31:30.391Z,32.17
2019-04-30T17:34:00.793Z,33.70
2019-04-30T17:36:31.190Z,34.83
2019-04-30T17:39:03.128Z,35.47
2019-04-30T17:41:33.626Z,36.43
2019-04-30T17:44:04.083Z,35.50
2019-04-30T17:46:34.510Z,34.33
2019-04-30T17:49:04.881Z,33.77
2019-04-30T17:51:35.241Z,35.13
2019-04-30T17:54:13.507Z,39.95
2019-04-30T17:56:45.102Z,35.80
2019-04-30T17:59:15.421Z,34.03
2019-04-30T18:01:49.490Z,33.93
2019-04-30T18:04:22.037Z,32.80
2019-04-30T18:06:51.457Z,32.87
2019-04-30T18:09:21.804Z,31.07
2019-04-30T18:11:52.513Z,33.23
2019-04-30T18:14:23.066Z,37.00
2019-04-30T18:16:53.490Z,33.47
2019-04-30T18:19:28.673Z,34.33
2019-04-30T18:22:00.827Z,34.70
2019-04-30T18:24:42.597Z,32.93
2019-04-30T18:27:14.635Z,31.43
2019-04-30T18:29:45.003Z,30.60
2019-04-30T18:32:19.319Z,31.53
2019-04-30T18:34:50.108Z,30.70
2019-04-30T18:37:20.582Z,31.00
2019-04-30T18:39:52.755Z,29.30
2019-04-30T18:42:23.265Z,31.70
2019-04-30T18:44:55.170Z,31.70
2019-04-30T18:47:26.038Z,30.47
2019-04-30T18:49:56.340Z,31.90
2019-04-30T18:52:26.650Z,35.58
2019-04-30T18:54:57.015Z,31.17
2019-04-30T18:57:27.438Z,30.43
2019-04-30T18:59:59.163Z,29.90
2019-04-30T19:02:29.828Z,30.47
2019-04-30T19:05:00.120Z,30.03
2019-04-30T19:07:37.978Z,32.23
2019-04-30T19:10:10.102Z,32.67
2019-04-30T19:12:42.415Z,31.63
2019-04-30T19:15:59.163Z,31.53
2019-04-30T19:18:04.484Z,32.30
2019-04-30T19:20:49.595Z,33.27
2019-04-30T19:23:20.207Z,32.57
2019-04-30T19:25:50.629Z,34.77
2019-04-30T19:28:23.790Z,32.23
2019-04-30T19:30:57.946Z,31.97
2019-04-30T19:33:26.294Z,32.50
2019-04-30T19:35:58.495Z,33.93
2019-04-30T19:38:28.676Z,32.97
2019-04-30T19:41:00.646Z,31.47
2019-04-30T19:43:30.960Z,32.83
2019-04-30T19:46:01.393Z,33.07
2019-04-30T19:48:31.674Z,39.20
2019-04-30T19:51:02.127Z,33.60
2019-04-30T19:53:34.385Z,33.67
2019-04-30T19:56:04.812Z,33.40
2019-04-30T19:58:48.767Z,31.73
2019-04-30T20:01:07.105Z,31.83
2019-04-30T20:03:37.495Z,31.53
2019-04-30T20:06:09.019Z,32.53
2019-04-30T20:08:39.690Z,33.40
2019-04-30T20:11:10.099Z,32.90
2019-04-30T20:13:40.625Z,32.27
2019-04-30T20:16:11.157Z,32.77
2019-04-30T20:18:41.543Z,32.13
2019-04-30T20:21:13.484Z,31.27
2019-04-30T20:23:43.922Z,30.30
2019-04-30T20:26:16.886Z,32.63
2019-04-30T20:28:49.166Z,31.87
2019-04-30T20:31:21.151Z,30.70
2019-04-30T20:33:53.660Z,32.20
2019-04-30T20:36:23.644Z,31.77
2019-04-30T20:38:55.745Z,32.47
2019-04-30T20:41:28.562Z,32.80
2019-04-30T20:44:00.259Z,32.80
2019-04-30T20:46:35.036Z,31.03
2019-04-30T20:49:05.283Z,37.90
2019-04-30T20:51:35.571Z,34.00
2019-04-30T20:54:05.926Z,32.33
2019-04-30T20:56:36.483Z,31.73
2019-04-30T20:59:10.471Z,31.83
2019-04-30T21:01:39.306Z,32.63
2019-04-30T21:04:10.039Z,32.67
2019-04-30T21:06:40.520Z,33.10
2019-04-30T21:09:11.165Z,32.57
2019-04-30T21:11:41.595Z,40.28
2019-04-30T21:14:12.074Z,33.83
2019-04-30T21:16:42.410Z,32.73
2019-04-30T21:19:12.833Z,31.97
2019-04-30T21:21:43.150Z,33.07
2019-04-30T21:24:13.637Z,34.30
2019-04-30T21:26:44.056Z,33.47
2019-04-30T21:29:15.990Z,32.93
2019-04-30T21:31:54.397Z,33.73
2019-04-30T21:34:35.303Z,34.00
2019-04-30T21:37:05.639Z,32.70
2019-04-30T21:39:36.102Z,34.20
2019-04-30T21:42:06.494Z,32.60
2019-04-30T21:44:36.911Z,33.95
2019-04-30T21:47:07.518Z,32.70
2019-04-30T21:49:37.855Z,32.50
2019-04-30T21:52:08.284Z,33.30
2019-04-30T21:54:38.855Z,31.97
2019-04-30T21:57:09.319Z,32.70
2019-04-30T21:59:39.765Z,31.10
2019-04-30T22:02:10.295Z,32.33
2019-04-30T22:04:40.726Z,31.67
2019-04-30T22:07:11.039Z,34.53
2019-04-30T22:09:42.999Z,32.97
2019-04-30T22:12:13.428Z,31.83
2019-04-30T22:14:43.800Z,31.53
2019-04-30T22:17:14.290Z,31.97
2019-04-30T22:19:44.586Z,32.90
2019-04-30T22:22:15.004Z,31.70
2019-04-30T22:24:45.525Z,32.47
2019-04-30T22:27:17.454Z,31.47
2019-04-30T22:29:47.859Z,32.70
2019-04-30T22:32:18.530Z,31.93
2019-04-30T22:34:49.005Z,32.27
2019-04-30T22:37:19.694Z,32.10
2019-04-30T22:39:59.264Z,32.27
2019-04-30T22:42:32.965Z,31.53
2019-04-30T22:45:07.103Z,38.90
2019-04-30T22:47:37.568Z,32.77
2019-04-30T22:50:08.539Z,32.37
2019-04-30T22:52:38.894Z,33.57
2019-04-30T22:55:09.200Z,32.70
2019-04-30T22:57:39.641Z,32.57
2019-04-30T23:00:12.599Z,32.40
2019-04-30T23:02:44.712Z,31.73
2019-04-30T23:05:16.609Z,32.87
2019-04-30T23:07:47.058Z,32.73
2019-04-30T23:10:18.154Z,32.27
2019-04-30T23:12:48.588Z,31.17
2019-04-30T23:15:20.104Z,29.60
2019-04-30T23:17:50.635Z,29.93
2019-04-30T23:20:20.959Z,29.80
2019-04-30T23:22:51.381Z,30.73
2019-04-30T23:25:21.741Z,30.60
2019-04-30T23:27:52.086Z,30.57
2019-04-30T23:30:22.531Z,30.70
2019-04-30T23:32:52.890Z,30.57
2019-04-30T23:35:23.266Z,31.40
2019-04-30T23:37:53.670Z,33.60
2019-04-30T23:40:29.488Z,35.97
2019-04-30T23:43:00.013Z,33.70
2019-04-30T23:45:30.370Z,43.02
2019-04-30T23:48:00.718Z,35.80
2019-04-30T23:50:31.090Z,35.03
2019-04-30T23:53:01.460Z,37.37
2019-04-30T23:55:31.777Z,35.23
2019-04-30T23:58:02.180Z,36.67
